PWSweather.com
Personal Weather Stations
Station Observations
KOHCLEVE171
Cleveland, OH

Cleveland, OH

Lat: 41.48646164, Lon: -81.46408081

Elevation: 1059

Station Type:

High Low Average
Temperature 36.0°F2.2°C 8.2°F-13.2°C 19.0°F-7.2°C
Dew Point 34.7°F1.5°C -2.2°F-19.0°C 12.1°F-11.1°C
Winds 8.7 mph 14.0 kmh 1.1 mph 1.8 kmh 4.0 mph SSW6.4 kmh SSW
Wind Gusts 15.9 mph25.6 kmh 1.8 mph2.9 kmh 7.0 mph11.3 kmh
Humidity 95% 59% 74%
Pressure 30.02 in1016.6 mb 29.65 in1004.1 mb -
Precipitation 0.02 in0.5 mm - -
Hour Temp Dew Point Humidity Winds Wind Gusts Pressure Precip Precip Rate Daily Precip Total
12:04 AM 36.5°F2.5°C 35.2°F1.8°C 95% 5.6 mph S9.0 kmh S 8.7 mph14.0 kmh 29.64 in1003.7 mb 0.01 in0.3 mm 0.15 in3.8 mm 0.24 in6.1 mm
12:09 AM 36.5°F2.5°C 35.4°F1.9°C 96% 4.3 mph SSW6.9 kmh SSW 5.1 mph8.2 kmh 29.64 in1003.7 mb 0.01 in0.3 mm 0.00 in0.0 mm 0.24 in6.1 mm
12:14 AM 36.7°F2.6°C 35.6°F2.0°C 96% 4.3 mph S6.9 kmh S 7.2 mph11.6 kmh 29.64 in1003.7 mb 0.02 in0.5 mm 0.12 in3.0 mm 0.25 in6.4 mm
12:19 AM 36.5°F2.5°C 35.2°F1.8°C 95% 4.5 mph SSW7.2 kmh SSW 5.8 mph9.3 kmh 29.64 in1003.7 mb 0.02 in0.5 mm 0.00 in0.0 mm 0.25 in6.4 mm
12:24 AM 36.7°F2.6°C 35.6°F2.0°C 96% 6.0 mph S9.7 kmh S 11.2 mph18.0 kmh 29.64 in1003.7 mb 0.02 in0.5 mm 0.00 in0.0 mm 0.25 in6.4 mm
12:29 AM 36.7°F2.6°C 35.6°F2.0°C 96% 3.8 mph S6.1 kmh S 6.9 mph11.1 kmh 29.64 in1003.7 mb 0.03 in0.8 mm 0.12 in3.0 mm 0.26 in6.6 mm
12:34 AM 36.7°F2.6°C 35.6°F2.0°C 96% 2.9 mph SSW4.7 kmh SSW 6.9 mph11.1 kmh 29.64 in1003.7 mb 0.03 in0.8 mm 0.00 in0.0 mm 0.26 in6.6 mm
12:39 AM 36.7°F2.6°C 35.6°F2.0°C 96% 4.5 mph SSW7.2 kmh SSW 6.3 mph10.1 kmh 29.64 in1003.7 mb 0.03 in0.8 mm 0.00 in0.0 mm 0.26 in6.6 mm
12:44 AM 36.5°F2.5°C 35.2°F1.8°C 95% 4.7 mph SW7.6 kmh SW 7.8 mph12.6 kmh 29.65 in1004.1 mb 0.04 in1.0 mm 0.12 in3.0 mm 0.27 in6.9 mm
12:49 AM 36.5°F2.5°C 35.4°F1.9°C 96% 4.3 mph SW6.9 kmh SW 6.5 mph10.5 kmh 29.65 in1004.1 mb 0.04 in1.0 mm 0.00 in0.0 mm 0.27 in6.9 mm
12:54 AM 36.3°F2.4°C 35.1°F1.7°C 95% 3.8 mph SW6.1 kmh SW 5.8 mph9.3 kmh 29.65 in1004.1 mb 0.05 in1.3 mm 0.12 in3.0 mm 0.28 in7.1 mm
01:04 AM 36.0°F2.2°C 34.7°F1.5°C 95% 3.1 mph SW5.0 kmh SW 5.4 mph8.7 kmh 29.65 in1004.1 mb 0.05 in1.3 mm 0.00 in0.0 mm 0.05 in1.3 mm
01:09 AM 36.0°F2.2°C 34.7°F1.5°C 95% 2.9 mph WNW4.7 kmh WNW 5.4 mph8.7 kmh 29.65 in1004.1 mb 0.01 in0.3 mm 0.00 in0.0 mm 0.01 in0.3 mm
01:14 AM 35.8°F2.1°C 34.5°F1.4°C 95% 3.8 mph W6.1 kmh W 7.2 mph11.6 kmh 29.66 in1004.4 mb 0.01 in0.3 mm 0.00 in0.0 mm 0.01 in0.3 mm
01:19 AM 34.7°F1.5°C 32.0°F0.0°C 90% 5.6 mph NNW9.0 kmh NNW 10.1 mph16.3 kmh 29.67 in1004.7 mb 0.01 in0.3 mm 0.00 in0.0 mm 0.01 in0.3 mm
01:24 AM 34.2°F1.2°C 31.5°F-0.3°C 90% 3.1 mph N5.0 kmh N 5.1 mph8.2 kmh 29.67 in1004.7 mb 0.02 in0.5 mm 0.12 in3.0 mm 0.02 in0.5 mm
01:29 AM 33.6°F0.9°C 30.9°F-0.6°C 90% 3.4 mph N5.5 kmh N 5.1 mph8.2 kmh 29.66 in1004.4 mb 0.02 in0.5 mm 0.00 in0.0 mm 0.02 in0.5 mm
01:34 AM 33.4°F0.8°C 31.1°F-0.5°C 91% 3.1 mph WNW5.0 kmh WNW 5.6 mph9.0 kmh 29.67 in1004.7 mb 0.02 in0.5 mm 0.00 in0.0 mm 0.02 in0.5 mm
01:39 AM 33.4°F0.8°C 31.1°F-0.5°C 91% 2.5 mph WSW4.0 kmh WSW 3.6 mph5.8 kmh 29.67 in1004.7 mb 0.02 in0.5 mm 0.00 in0.0 mm 0.02 in0.5 mm
01:44 AM 33.4°F0.8°C 31.6°F-0.2°C 93% 5.1 mph SW8.2 kmh SW 11.9 mph19.2 kmh 29.68 in1005.1 mb 0.02 in0.5 mm 0.00 in0.0 mm 0.02 in0.5 mm
01:49 AM 33.1°F0.6°C 31.3°F-0.4°C 93% 3.6 mph WNW5.8 kmh WNW 8.5 mph13.7 kmh 29.68 in1005.1 mb 0.02 in0.5 mm 0.00 in0.0 mm 0.02 in0.5 mm
01:54 AM 32.9°F0.5°C 30.6°F-0.8°C 91% 3.6 mph SW5.8 kmh SW 7.6 mph12.2 kmh 29.69 in1005.4 mb 0.02 in0.5 mm 0.00 in0.0 mm 0.02 in0.5 mm
01:59 AM 32.7°F0.4°C 30.4°F-0.9°C 91% 3.6 mph SW5.8 kmh SW 6.7 mph10.8 kmh 29.69 in1005.4 mb 0.02 in0.5 mm 0.00 in0.0 mm 0.02 in0.5 mm
02:04 AM 32.5°F0.3°C 29.7°F-1.3°C 89% 4.0 mph SW6.4 kmh SW 6.3 mph10.1 kmh 29.70 in1005.8 mb 0.01 in0.3 mm 0.00 in0.0 mm 0.02 in0.5 mm
02:09 AM 32.4°F0.2°C 29.5°F-1.4°C 89% 5.4 mph WSW8.7 kmh WSW 11.2 mph18.0 kmh 29.70 in1005.8 mb 0.01 in0.3 mm 0.00 in0.0 mm 0.02 in0.5 mm
02:14 AM 32.0°F0.0°C 28.0°F-2.2°C 85% 4.9 mph W7.9 kmh W 11.2 mph18.0 kmh 29.70 in1005.8 mb 0.01 in0.3 mm 0.00 in0.0 mm 0.02 in0.5 mm
02:19 AM 31.8°F-0.1°C 27.5°F-2.5°C 84% 2.9 mph SW4.7 kmh SW 5.6 mph9.0 kmh 29.71 in1006.1 mb 0.00 in0.0 mm 0.00 in0.0 mm 0.02 in0.5 mm
02:24 AM 31.6°F-0.2°C 27.3°F-2.6°C 84% 2.5 mph S4.0 kmh S 4.7 mph7.6 kmh 29.71 in1006.1 mb 0.00 in0.0 mm 0.00 in0.0 mm 0.02 in0.5 mm
02:29 AM 31.3°F-0.4°C 27.0°F-2.8°C 84% 3.6 mph SW5.8 kmh SW 5.6 mph9.0 kmh 29.71 in1006.1 mb 0.00 in0.0 mm 0.00 in0.0 mm 0.02 in0.5 mm
02:34 AM 31.3°F-0.4°C 27.0°F-2.8°C 84% 2.0 mph WSW3.2 kmh WSW 4.0 mph6.4 kmh 29.72 in1006.4 mb 0.00 in0.0 mm 0.00 in0.0 mm 0.02 in0.5 mm
02:39 AM 31.3°F-0.4°C 27.0°F-2.8°C 84% 3.6 mph SW5.8 kmh SW 10.1 mph16.3 kmh 29.71 in1006.1 mb 0.00 in0.0 mm 0.00 in0.0 mm 0.02 in0.5 mm
02:44 AM 31.1°F-0.5°C 26.8°F-2.9°C 84% 6.7 mph SW10.8 kmh SW 10.3 mph16.6 kmh 29.71 in1006.1 mb 0.00 in0.0 mm 0.00 in0.0 mm 0.02 in0.5 mm
02:49 AM 30.7°F-0.7°C 26.2°F-3.2°C 83% 2.0 mph WNW3.2 kmh WNW 5.4 mph8.7 kmh 29.72 in1006.4 mb 0.00 in0.0 mm 0.00 in0.0 mm 0.02 in0.5 mm
02:54 AM 30.7°F-0.7°C 25.5°F-3.6°C 81% 4.7 mph SW7.6 kmh SW 8.7 mph14.0 kmh 29.72 in1006.4 mb 0.00 in0.0 mm 0.00 in0.0 mm 0.02 in0.5 mm
02:59 AM 30.4°F-0.9°C 25.2°F-3.8°C 81% 6.5 mph SSW10.5 kmh SSW 14.8 mph23.8 kmh 29.72 in1006.4 mb 0.00 in0.0 mm 0.00 in0.0 mm 0.02 in0.5 mm
03:04 AM 30.0°F-1.1°C 24.3°F-4.3°C 79% 3.4 mph WSW5.5 kmh WSW 8.1 mph13.0 kmh 29.72 in1006.4 mb 0.00 in0.0 mm 0.00 in0.0 mm 0.02 in0.5 mm
03:09 AM 29.8°F-1.2°C 24.1°F-4.4°C 79% 2.2 mph NE3.5 kmh NE 6.0 mph9.7 kmh 29.73 in1006.8 mb 0.00 in0.0 mm 0.00 in0.0 mm 0.02 in0.5 mm
03:14 AM 29.7°F-1.3°C 24.3°F-4.3°C 80% 4.7 mph SSW7.6 kmh SSW 9.4 mph15.1 kmh 29.73 in1006.8 mb 0.00 in0.0 mm 0.00 in0.0 mm 0.02 in0.5 mm
03:19 AM 29.5°F-1.4°C 23.7°F-4.6°C 79% 2.5 mph S4.0 kmh S 5.4 mph8.7 kmh 29.74 in1007.1 mb 0.00 in0.0 mm 0.00 in0.0 mm 0.02 in0.5 mm
03:24 AM 29.1°F-1.6°C 23.2°F-4.9°C 78% 4.5 mph SSW7.2 kmh SSW 6.7 mph10.8 kmh 29.74 in1007.1 mb 0.00 in0.0 mm 0.00 in0.0 mm 0.02 in0.5 mm
03:29 AM 28.8°F-1.8°C 22.8°F-5.1°C 78% 4.7 mph SSW7.6 kmh SSW 7.8 mph12.6 kmh 29.74 in1007.1 mb 0.00 in0.0 mm 0.00 in0.0 mm 0.02 in0.5 mm
03:34 AM 28.0°F-2.2°C 21.4°F-5.9°C 76% 7.4 mph SW11.9 kmh SW 11.2 mph18.0 kmh 29.75 in1007.5 mb 0.00 in0.0 mm 0.00 in0.0 mm 0.02 in0.5 mm
03:39 AM 27.3°F-2.6°C 20.1°F-6.6°C 74% 3.8 mph SW6.1 kmh SW 13.4 mph21.6 kmh 29.75 in1007.5 mb 0.00 in0.0 mm 0.00 in0.0 mm 0.02 in0.5 mm
03:44 AM 26.8°F-2.9°C 19.9°F-6.7°C 75% 5.8 mph SSW9.3 kmh SSW 12.3 mph19.8 kmh 29.75 in1007.5 mb 0.00 in0.0 mm 0.00 in0.0 mm 0.02 in0.5 mm
03:49 AM 26.2°F-3.2°C 19.4°F-7.0°C 75% 5.1 mph SSW8.2 kmh SSW 11.9 mph19.2 kmh 29.76 in1007.8 mb 0.00 in0.0 mm 0.00 in0.0 mm 0.02 in0.5 mm
03:54 AM 25.7°F-3.5°C 18.9°F-7.3°C 75% 4.0 mph W6.4 kmh W 8.3 mph13.4 kmh 29.76 in1007.8 mb 0.00 in0.0 mm 0.00 in0.0 mm 0.02 in0.5 mm
03:59 AM 25.3°F-3.7°C 18.1°F-7.7°C 74% 4.9 mph SW7.9 kmh SW 9.4 mph15.1 kmh 29.77 in1008.1 mb 0.00 in0.0 mm 0.00 in0.0 mm 0.02 in0.5 mm
04:04 AM 25.2°F-3.8°C 18.7°F-7.4°C 76% 3.4 mph SSW5.5 kmh SSW 7.4 mph11.9 kmh 29.77 in1008.1 mb 0.00 in0.0 mm 0.00 in0.0 mm 0.02 in0.5 mm
04:09 AM 25.0°F-3.9°C 18.5°F-7.5°C 76% 6.0 mph SSW9.7 kmh SSW 10.1 mph16.3 kmh 29.77 in1008.1 mb 0.00 in0.0 mm 0.00 in0.0 mm 0.02 in0.5 mm
04:14 AM 24.8°F-4.0°C 18.3°F-7.6°C 76% 5.8 mph S9.3 kmh S 9.4 mph15.1 kmh 29.78 in1008.5 mb 0.00 in0.0 mm 0.00 in0.0 mm 0.02 in0.5 mm
04:19 AM 24.6°F-4.1°C 18.1°F-7.7°C 76% 4.0 mph SW6.4 kmh SW 11.0 mph17.7 kmh 29.77 in1008.1 mb 0.00 in0.0 mm 0.00 in0.0 mm 0.02 in0.5 mm
04:24 AM 24.4°F-4.2°C 18.5°F-7.5°C 78% 5.4 mph WSW8.7 kmh WSW 12.3 mph19.8 kmh 29.77 in1008.1 mb 0.00 in0.0 mm 0.00 in0.0 mm 0.02 in0.5 mm
04:29 AM 24.1°F-4.4°C 18.1°F-7.7°C 78% 4.5 mph W7.2 kmh W 12.3 mph19.8 kmh 29.78 in1008.5 mb 0.00 in0.0 mm 0.00 in0.0 mm 0.02 in0.5 mm
04:34 AM 23.9°F-4.5°C 17.4°F-8.1°C 76% 4.3 mph SSW6.9 kmh SSW 12.1 mph19.5 kmh 29.78 in1008.5 mb 0.00 in0.0 mm 0.00 in0.0 mm 0.02 in0.5 mm
04:39 AM 23.9°F-4.5°C 18.0°F-7.8°C 78% 2.7 mph SW4.3 kmh SW 4.3 mph6.9 kmh 29.78 in1008.5 mb 0.00 in0.0 mm 0.00 in0.0 mm 0.02 in0.5 mm
04:44 AM 23.9°F-4.5°C 18.0°F-7.8°C 78% 2.7 mph SE4.3 kmh SE 6.3 mph10.1 kmh 29.78 in1008.5 mb 0.00 in0.0 mm 0.00 in0.0 mm 0.02 in0.5 mm
04:49 AM 23.7°F-4.6°C 17.8°F-7.9°C 78% 2.7 mph W4.3 kmh W 6.3 mph10.1 kmh 29.78 in1008.5 mb 0.00 in0.0 mm 0.00 in0.0 mm 0.02 in0.5 mm
04:54 AM 23.7°F-4.6°C 18.1°F-7.7°C 79% 4.9 mph SSW7.9 kmh SSW 8.9 mph14.3 kmh 29.78 in1008.5 mb 0.00 in0.0 mm 0.00 in0.0 mm 0.02 in0.5 mm
04:59 AM 23.7°F-4.6°C 18.1°F-7.7°C 79% 2.9 mph WSW4.7 kmh WSW 6.3 mph10.1 kmh 29.78 in1008.5 mb 0.00 in0.0 mm 0.00 in0.0 mm 0.02 in0.5 mm
05:04 AM 23.5°F-4.7°C 17.8°F-7.9°C 78% 4.5 mph SSW7.2 kmh SSW 7.4 mph11.9 kmh 29.78 in1008.5 mb 0.00 in0.0 mm 0.00 in0.0 mm 0.02 in0.5 mm
05:09 AM 23.4°F-4.8°C 17.6°F-8.0°C 78% 4.0 mph SW6.4 kmh SW 8.1 mph13.0 kmh 29.79 in1008.8 mb 0.00 in0.0 mm 0.00 in0.0 mm 0.02 in0.5 mm
05:14 AM 23.0°F-5.0°C 16.5°F-8.6°C 76% 3.6 mph SW5.8 kmh SW 8.3 mph13.4 kmh 29.79 in1008.8 mb 0.00 in0.0 mm 0.00 in0.0 mm 0.02 in0.5 mm
05:19 AM 22.8°F-5.1°C 16.3°F-8.7°C 76% 1.8 mph S2.9 kmh S 3.1 mph5.0 kmh 29.79 in1008.8 mb 0.00 in0.0 mm 0.00 in0.0 mm 0.02 in0.5 mm
05:24 AM 23.0°F-5.0°C 16.5°F-8.6°C 76% 4.0 mph SSE6.4 kmh SSE 9.4 mph15.1 kmh 29.80 in1009.1 mb 0.00 in0.0 mm 0.00 in0.0 mm 0.02 in0.5 mm
05:29 AM 22.5°F-5.3°C 15.8°F-9.0°C 75% 1.8 mph ENE2.9 kmh ENE 3.6 mph5.8 kmh 29.80 in1009.1 mb 0.00 in0.0 mm 0.00 in0.0 mm 0.02 in0.5 mm
05:34 AM 22.5°F-5.3°C 16.0°F-8.9°C 76% 3.6 mph SSW5.8 kmh SSW 7.4 mph11.9 kmh 29.80 in1009.1 mb 0.00 in0.0 mm 0.00 in0.0 mm 0.02 in0.5 mm
05:39 AM 22.5°F-5.3°C 16.7°F-8.5°C 78% 2.7 mph S4.3 kmh S 4.0 mph6.4 kmh 29.80 in1009.1 mb 0.00 in0.0 mm 0.00 in0.0 mm 0.02 in0.5 mm
05:44 AM 22.3°F-5.4°C 15.8°F-9.0°C 76% 3.4 mph SE5.5 kmh SE 9.8 mph15.8 kmh 29.80 in1009.1 mb 0.00 in0.0 mm 0.00 in0.0 mm 0.02 in0.5 mm
05:49 AM 22.1°F-5.5°C 15.6°F-9.1°C 76% 2.2 mph SE3.5 kmh SE 3.4 mph5.5 kmh 29.80 in1009.1 mb 0.00 in0.0 mm 0.00 in0.0 mm 0.02 in0.5 mm
05:54 AM 22.1°F-5.5°C 16.3°F-8.7°C 78% 2.5 mph S4.0 kmh S 5.4 mph8.7 kmh 29.80 in1009.1 mb 0.00 in0.0 mm 0.00 in0.0 mm 0.02 in0.5 mm
05:59 AM 21.9°F-5.6°C 15.4°F-9.2°C 76% 4.3 mph SSW6.9 kmh SSW 6.9 mph11.1 kmh 29.80 in1009.1 mb 0.00 in0.0 mm 0.00 in0.0 mm 0.02 in0.5 mm
06:03 AM 22.1°F-5.5°C 15.6°F-9.1°C 76% 1.8 mph S2.9 kmh S 3.1 mph5.0 kmh 29.80 in1009.1 mb 0.00 in0.0 mm 0.00 in0.0 mm 0.02 in0.5 mm
06:08 AM 21.9°F-5.6°C 15.4°F-9.2°C 76% 2.0 mph SSE3.2 kmh SSE 6.0 mph9.7 kmh 29.81 in1009.5 mb 0.00 in0.0 mm 0.00 in0.0 mm 0.02 in0.5 mm
06:13 AM 21.9°F-5.6°C 16.2°F-8.8°C 78% 3.6 mph SSW5.8 kmh SSW 7.8 mph12.6 kmh 29.81 in1009.5 mb 0.00 in0.0 mm 0.00 in0.0 mm 0.02 in0.5 mm
06:18 AM 21.6°F-5.8°C 15.1°F-9.4°C 76% 2.7 mph S4.3 kmh S 3.6 mph5.8 kmh 29.81 in1009.5 mb 0.00 in0.0 mm 0.00 in0.0 mm 0.02 in0.5 mm
06:23 AM 21.2°F-6.0°C 14.9°F-9.5°C 76% 1.1 mph ESE1.8 kmh ESE 2.9 mph4.7 kmh 29.81 in1009.5 mb 0.00 in0.0 mm 0.00 in0.0 mm 0.02 in0.5 mm
06:28 AM 21.4°F-5.9°C 15.1°F-9.4°C 76% 4.0 mph S6.4 kmh S 6.7 mph10.8 kmh 29.81 in1009.5 mb 0.00 in0.0 mm 0.00 in0.0 mm 0.02 in0.5 mm
06:33 AM 21.4°F-5.9°C 15.1°F-9.4°C 76% 2.5 mph S4.0 kmh S 4.0 mph6.4 kmh 29.82 in1009.8 mb 0.00 in0.0 mm 0.00 in0.0 mm 0.02 in0.5 mm
06:38 AM 21.2°F-6.0°C 14.9°F-9.5°C 76% 2.2 mph S3.5 kmh S 5.8 mph9.3 kmh 29.82 in1009.8 mb 0.00 in0.0 mm 0.00 in0.0 mm 0.02 in0.5 mm
06:43 AM 21.0°F-6.1°C 14.7°F-9.6°C 76% 1.8 mph NE2.9 kmh NE 6.5 mph10.5 kmh 29.82 in1009.8 mb 0.00 in0.0 mm 0.00 in0.0 mm 0.02 in0.5 mm
06:48 AM 21.0°F-6.1°C 14.7°F-9.6°C 76% 1.6 mph SW2.6 kmh SW 4.0 mph6.4 kmh 29.82 in1009.8 mb 0.00 in0.0 mm 0.00 in0.0 mm 0.02 in0.5 mm
06:53 AM 21.0°F-6.1°C 14.7°F-9.6°C 76% 2.2 mph NW3.5 kmh NW 4.5 mph7.2 kmh 29.82 in1009.8 mb 0.00 in0.0 mm 0.00 in0.0 mm 0.02 in0.5 mm
06:58 AM 21.0°F-6.1°C 15.3°F-9.3°C 78% 2.0 mph ESE3.2 kmh ESE 8.1 mph13.0 kmh 29.82 in1009.8 mb 0.00 in0.0 mm 0.00 in0.0 mm 0.02 in0.5 mm
07:03 AM 21.0°F-6.1°C 14.7°F-9.6°C 76% 2.9 mph S4.7 kmh S 6.0 mph9.7 kmh 29.82 in1009.8 mb 0.00 in0.0 mm 0.00 in0.0 mm 0.02 in0.5 mm
07:08 AM 21.0°F-6.1°C 15.3°F-9.3°C 78% 1.3 mph SE2.1 kmh SE 4.0 mph6.4 kmh 29.83 in1010.2 mb 0.00 in0.0 mm 0.00 in0.0 mm 0.02 in0.5 mm
07:13 AM 20.7°F-6.3°C 14.4°F-9.8°C 76% 3.6 mph S5.8 kmh S 7.8 mph12.6 kmh 29.83 in1010.2 mb 0.00 in0.0 mm 0.00 in0.0 mm 0.02 in0.5 mm
07:18 AM 20.8°F-6.2°C 14.5°F-9.7°C 76% 2.2 mph SW3.5 kmh SW 5.1 mph8.2 kmh 29.83 in1010.2 mb 0.00 in0.0 mm 0.00 in0.0 mm 0.02 in0.5 mm
07:23 AM 20.8°F-6.2°C 15.1°F-9.4°C 78% 4.3 mph S6.9 kmh S 5.6 mph9.0 kmh 29.83 in1010.2 mb 0.00 in0.0 mm 0.00 in0.0 mm 0.02 in0.5 mm
07:28 AM 20.7°F-6.3°C 14.4°F-9.8°C 76% 1.3 mph ENE2.1 kmh ENE 2.5 mph4.0 kmh 29.83 in1010.2 mb 0.00 in0.0 mm 0.00 in0.0 mm 0.02 in0.5 mm
07:33 AM 20.5°F-6.4°C 14.2°F-9.9°C 76% 2.0 mph SSW3.2 kmh SSW 4.5 mph7.2 kmh 29.83 in1010.2 mb 0.00 in0.0 mm 0.00 in0.0 mm 0.02 in0.5 mm
07:38 AM 20.7°F-6.3°C 14.9°F-9.5°C 78% 1.8 mph S2.9 kmh S 4.0 mph6.4 kmh 29.83 in1010.2 mb 0.00 in0.0 mm 0.00 in0.0 mm 0.02 in0.5 mm
07:43 AM 20.8°F-6.2°C 15.4°F-9.2°C 79% 4.5 mph S7.2 kmh S 8.3 mph13.4 kmh 29.83 in1010.2 mb 0.00 in0.0 mm 0.00 in0.0 mm 0.02 in0.5 mm
07:48 AM 20.5°F-6.4°C 14.7°F-9.6°C 78% 2.2 mph S3.5 kmh S 5.1 mph8.2 kmh 29.83 in1010.2 mb 0.00 in0.0 mm 0.00 in0.0 mm 0.02 in0.5 mm
07:53 AM 20.7°F-6.3°C 14.9°F-9.5°C 78% 3.4 mph S5.5 kmh S 4.7 mph7.6 kmh 29.84 in1010.5 mb 0.00 in0.0 mm 0.00 in0.0 mm 0.02 in0.5 mm
07:58 AM 20.3°F-6.5°C 14.5°F-9.7°C 78% 3.4 mph SSW5.5 kmh SSW 5.6 mph9.0 kmh 29.84 in1010.5 mb 0.00 in0.0 mm 0.00 in0.0 mm 0.02 in0.5 mm
08:03 AM 20.5°F-6.4°C 14.7°F-9.6°C 78% 3.1 mph S5.0 kmh S 6.7 mph10.8 kmh 29.85 in1010.8 mb 0.00 in0.0 mm 0.00 in0.0 mm 0.02 in0.5 mm
08:08 AM 20.5°F-6.4°C 14.7°F-9.6°C 78% 1.8 mph S2.9 kmh S 2.9 mph4.7 kmh 29.85 in1010.8 mb 0.00 in0.0 mm 0.00 in0.0 mm 0.02 in0.5 mm
08:13 AM 20.3°F-6.5°C 14.0°F-10.0°C 76% 2.0 mph NE3.2 kmh NE 3.4 mph5.5 kmh 29.85 in1010.8 mb 0.00 in0.0 mm 0.00 in0.0 mm 0.02 in0.5 mm
08:18 AM 20.1°F-6.6°C 13.8°F-10.1°C 76% 1.6 mph SSE2.6 kmh SSE 4.0 mph6.4 kmh 29.85 in1010.8 mb 0.00 in0.0 mm 0.00 in0.0 mm 0.02 in0.5 mm
08:23 AM 20.1°F-6.6°C 14.4°F-9.8°C 78% 4.5 mph SSW7.2 kmh SSW 11.2 mph18.0 kmh 29.85 in1010.8 mb 0.00 in0.0 mm 0.00 in0.0 mm 0.02 in0.5 mm
08:28 AM 19.9°F-6.7°C 13.6°F-10.2°C 76% 3.8 mph S6.1 kmh S 6.3 mph10.1 kmh 29.87 in1011.5 mb 0.00 in0.0 mm 0.00 in0.0 mm 0.02 in0.5 mm
08:33 AM 20.1°F-6.6°C 14.4°F-9.8°C 78% 2.9 mph S4.7 kmh S 4.5 mph7.2 kmh 29.87 in1011.5 mb 0.00 in0.0 mm 0.00 in0.0 mm 0.02 in0.5 mm
08:38 AM 19.8°F-6.8°C 14.0°F-10.0°C 78% 1.6 mph S2.6 kmh S 2.7 mph4.3 kmh 29.87 in1011.5 mb 0.00 in0.0 mm 0.00 in0.0 mm 0.02 in0.5 mm
08:43 AM 19.9°F-6.7°C 14.2°F-9.9°C 78% 5.6 mph SSW9.0 kmh SSW 9.2 mph14.8 kmh 29.87 in1011.5 mb 0.00 in0.0 mm 0.00 in0.0 mm 0.02 in0.5 mm
08:48 AM 19.8°F-6.8°C 14.0°F-10.0°C 78% 5.6 mph SSW9.0 kmh SSW 8.5 mph13.7 kmh 29.88 in1011.9 mb 0.00 in0.0 mm 0.00 in0.0 mm 0.02 in0.5 mm
08:53 AM 19.8°F-6.8°C 13.5°F-10.3°C 76% 4.5 mph S7.2 kmh S 8.7 mph14.0 kmh 29.88 in1011.9 mb 0.00 in0.0 mm 0.00 in0.0 mm 0.02 in0.5 mm
08:58 AM 19.4°F-7.0°C 13.1°F-10.5°C 76% 2.2 mph S3.5 kmh S 4.3 mph6.9 kmh 29.88 in1011.9 mb 0.00 in0.0 mm 0.00 in0.0 mm 0.02 in0.5 mm
09:03 AM 19.6°F-6.9°C 14.2°F-9.9°C 79% 1.8 mph SSE2.9 kmh SSE 2.5 mph4.0 kmh 29.88 in1011.9 mb 0.00 in0.0 mm 0.00 in0.0 mm 0.02 in0.5 mm
09:08 AM 19.8°F-6.8°C 14.4°F-9.8°C 79% 3.6 mph SSW5.8 kmh SSW 6.9 mph11.1 kmh 29.89 in1012.2 mb 0.00 in0.0 mm 0.00 in0.0 mm 0.02 in0.5 mm
09:13 AM 19.4°F-7.0°C 13.6°F-10.2°C 78% 3.1 mph SSW5.0 kmh SSW 5.6 mph9.0 kmh 29.89 in1012.2 mb 0.00 in0.0 mm 0.00 in0.0 mm 0.02 in0.5 mm
09:18 AM 19.2°F-7.1°C 13.8°F-10.1°C 79% 4.5 mph S7.2 kmh S 7.2 mph11.6 kmh 29.89 in1012.2 mb 0.00 in0.0 mm 0.00 in0.0 mm 0.02 in0.5 mm
09:23 AM 19.0°F-7.2°C 13.3°F-10.4°C 78% 3.4 mph S5.5 kmh S 8.7 mph14.0 kmh 29.89 in1012.2 mb 0.00 in0.0 mm 0.00 in0.0 mm 0.02 in0.5 mm
09:28 AM 19.0°F-7.2°C 13.3°F-10.4°C 78% 5.1 mph SW8.2 kmh SW 11.2 mph18.0 kmh 29.90 in1012.5 mb 0.00 in0.0 mm 0.00 in0.0 mm 0.02 in0.5 mm
09:33 AM 18.9°F-7.3°C 13.1°F-10.5°C 78% 5.4 mph SSW8.7 kmh SSW 10.5 mph16.9 kmh 29.90 in1012.5 mb 0.00 in0.0 mm 0.00 in0.0 mm 0.02 in0.5 mm
09:38 AM 18.7°F-7.4°C 12.9°F-10.6°C 78% 2.0 mph SE3.2 kmh SE 3.6 mph5.8 kmh 29.90 in1012.5 mb 0.00 in0.0 mm 0.00 in0.0 mm 0.02 in0.5 mm
09:43 AM 18.9°F-7.3°C 13.5°F-10.3°C 79% 2.9 mph S4.7 kmh S 5.4 mph8.7 kmh 29.91 in1012.9 mb 0.00 in0.0 mm 0.00 in0.0 mm 0.02 in0.5 mm
09:48 AM 18.9°F-7.3°C 13.5°F-10.3°C 79% 3.4 mph SSW5.5 kmh SSW 7.2 mph11.6 kmh 29.90 in1012.5 mb 0.00 in0.0 mm 0.00 in0.0 mm 0.02 in0.5 mm
09:53 AM 18.9°F-7.3°C 13.6°F-10.2°C 80% 2.9 mph S4.7 kmh S 5.4 mph8.7 kmh 29.91 in1012.9 mb 0.00 in0.0 mm 0.00 in0.0 mm 0.02 in0.5 mm
09:58 AM 18.9°F-7.3°C 13.6°F-10.2°C 80% 2.9 mph SW4.7 kmh SW 6.7 mph10.8 kmh 29.91 in1012.9 mb 0.00 in0.0 mm 0.00 in0.0 mm 0.02 in0.5 mm
10:03 AM 18.9°F-7.3°C 13.6°F-10.2°C 80% 2.5 mph S4.0 kmh S 3.6 mph5.8 kmh 29.91 in1012.9 mb 0.00 in0.0 mm 0.00 in0.0 mm 0.02 in0.5 mm
10:08 AM 18.7°F-7.4°C 13.5°F-10.3°C 80% 2.0 mph S3.2 kmh S 4.0 mph6.4 kmh 29.90 in1012.5 mb 0.00 in0.0 mm 0.00 in0.0 mm 0.02 in0.5 mm
10:13 AM 18.7°F-7.4°C 14.4°F-9.8°C 83% 2.2 mph SSE3.5 kmh SSE 4.3 mph6.9 kmh 29.91 in1012.9 mb 0.00 in0.0 mm 0.00 in0.0 mm 0.02 in0.5 mm
10:18 AM 18.9°F-7.3°C 14.0°F-10.0°C 81% 2.0 mph S3.2 kmh S 3.6 mph5.8 kmh 29.91 in1012.9 mb 0.00 in0.0 mm 0.00 in0.0 mm 0.02 in0.5 mm
10:23 AM 18.9°F-7.3°C 13.6°F-10.2°C 80% 4.5 mph S7.2 kmh S 7.2 mph11.6 kmh 29.91 in1012.9 mb 0.00 in0.0 mm 0.00 in0.0 mm 0.02 in0.5 mm
10:28 AM 19.0°F-7.2°C 13.8°F-10.1°C 80% 3.8 mph S6.1 kmh S 5.6 mph9.0 kmh 29.91 in1012.9 mb 0.00 in0.0 mm 0.00 in0.0 mm 0.02 in0.5 mm
10:33 AM 18.9°F-7.3°C 13.5°F-10.3°C 79% 2.7 mph S4.3 kmh S 4.3 mph6.9 kmh 29.90 in1012.5 mb 0.00 in0.0 mm 0.00 in0.0 mm 0.02 in0.5 mm
10:38 AM 18.9°F-7.3°C 13.5°F-10.3°C 79% 2.0 mph S3.2 kmh S 5.1 mph8.2 kmh 29.91 in1012.9 mb 0.00 in0.0 mm 0.00 in0.0 mm 0.02 in0.5 mm
10:43 AM 18.7°F-7.4°C 13.3°F-10.4°C 79% 2.7 mph SSW4.3 kmh SSW 5.8 mph9.3 kmh 29.91 in1012.9 mb 0.00 in0.0 mm 0.00 in0.0 mm 0.02 in0.5 mm
10:48 AM 18.7°F-7.4°C 13.3°F-10.4°C 79% 1.8 mph SE2.9 kmh SE 3.6 mph5.8 kmh 29.91 in1012.9 mb 0.00 in0.0 mm 0.00 in0.0 mm 0.02 in0.5 mm
10:53 AM 18.7°F-7.4°C 12.9°F-10.6°C 78% 4.0 mph S6.4 kmh S 5.4 mph8.7 kmh 29.91 in1012.9 mb 0.00 in0.0 mm 0.00 in0.0 mm 0.02 in0.5 mm
10:58 AM 18.7°F-7.4°C 12.9°F-10.6°C 78% 3.1 mph S5.0 kmh S 4.5 mph7.2 kmh 29.92 in1013.2 mb 0.00 in0.0 mm 0.00 in0.0 mm 0.02 in0.5 mm
11:03 AM 18.9°F-7.3°C 13.1°F-10.5°C 78% 3.6 mph S5.8 kmh S 5.6 mph9.0 kmh 29.91 in1012.9 mb 0.00 in0.0 mm 0.00 in0.0 mm 0.02 in0.5 mm
11:08 AM 19.0°F-7.2°C 13.3°F-10.4°C 78% 2.0 mph SE3.2 kmh SE 2.9 mph4.7 kmh 29.91 in1012.9 mb 0.00 in0.0 mm 0.00 in0.0 mm 0.02 in0.5 mm
11:13 AM 18.9°F-7.3°C 13.1°F-10.5°C 78% 4.7 mph S7.6 kmh S 7.6 mph12.2 kmh 29.91 in1012.9 mb 0.00 in0.0 mm 0.00 in0.0 mm 0.02 in0.5 mm
11:18 AM 18.9°F-7.3°C 13.1°F-10.5°C 78% 2.7 mph SW4.3 kmh SW 6.0 mph9.7 kmh 29.92 in1013.2 mb 0.00 in0.0 mm 0.00 in0.0 mm 0.02 in0.5 mm
11:23 AM 18.9°F-7.3°C 13.5°F-10.3°C 79% 4.3 mph S6.9 kmh S 6.7 mph10.8 kmh 29.92 in1013.2 mb 0.00 in0.0 mm 0.00 in0.0 mm 0.02 in0.5 mm
11:28 AM 19.0°F-7.2°C 13.3°F-10.4°C 78% 4.0 mph S6.4 kmh S 6.7 mph10.8 kmh 29.92 in1013.2 mb 0.00 in0.0 mm 0.00 in0.0 mm 0.02 in0.5 mm
11:33 AM 19.0°F-7.2°C 13.6°F-10.2°C 79% 4.0 mph SSW6.4 kmh SSW 6.7 mph10.8 kmh 29.92 in1013.2 mb 0.00 in0.0 mm 0.00 in0.0 mm 0.02 in0.5 mm
11:38 AM 19.0°F-7.2°C 12.7°F-10.7°C 76% 3.4 mph SW5.5 kmh SW 7.4 mph11.9 kmh 29.92 in1013.2 mb 0.00 in0.0 mm 0.00 in0.0 mm 0.02 in0.5 mm
11:43 AM 19.0°F-7.2°C 12.7°F-10.7°C 76% 3.8 mph S6.1 kmh S 10.7 mph17.2 kmh 29.92 in1013.2 mb 0.00 in0.0 mm 0.00 in0.0 mm 0.02 in0.5 mm
11:48 AM 18.9°F-7.3°C 12.2°F-11.0°C 75% 5.6 mph SSW9.0 kmh SSW 10.3 mph16.6 kmh 29.92 in1013.2 mb 0.00 in0.0 mm 0.00 in0.0 mm 0.02 in0.5 mm
11:53 AM 19.2°F-7.1°C 12.6°F-10.8°C 75% 4.9 mph SSW7.9 kmh SSW 8.7 mph14.0 kmh 29.92 in1013.2 mb 0.00 in0.0 mm 0.00 in0.0 mm 0.02 in0.5 mm
11:58 AM 19.0°F-7.2°C 12.2°F-11.0°C 74% 3.4 mph S5.5 kmh S 5.6 mph9.0 kmh 29.92 in1013.2 mb 0.00 in0.0 mm 0.00 in0.0 mm 0.02 in0.5 mm
12:03 PM 19.0°F-7.2°C 12.2°F-11.0°C 74% 5.8 mph S9.3 kmh S 11.6 mph18.7 kmh 29.92 in1013.2 mb 0.00 in0.0 mm 0.00 in0.0 mm 0.02 in0.5 mm
12:08 PM 19.2°F-7.1°C 12.4°F-10.9°C 74% 5.6 mph SSW9.0 kmh SSW 8.9 mph14.3 kmh 29.92 in1013.2 mb 0.00 in0.0 mm 0.00 in0.0 mm 0.02 in0.5 mm
12:13 PM 19.4°F-7.0°C 12.4°F-10.9°C 74% 6.7 mph S10.8 kmh S 9.6 mph15.4 kmh 29.92 in1013.2 mb 0.00 in0.0 mm 0.00 in0.0 mm 0.02 in0.5 mm
12:18 PM 19.6°F-6.9°C 12.4°F-10.9°C 73% 6.3 mph S10.1 kmh S 10.5 mph16.9 kmh 29.92 in1013.2 mb 0.00 in0.0 mm 0.00 in0.0 mm 0.02 in0.5 mm
12:23 PM 19.4°F-7.0°C 12.4°F-10.9°C 74% 6.9 mph SW11.1 kmh SW 15.9 mph25.6 kmh 29.92 in1013.2 mb 0.00 in0.0 mm 0.00 in0.0 mm 0.02 in0.5 mm
12:28 PM 19.4°F-7.0°C 12.2°F-11.0°C 73% 5.1 mph SSW8.2 kmh SSW 9.6 mph15.4 kmh 29.92 in1013.2 mb 0.00 in0.0 mm 0.00 in0.0 mm 0.02 in0.5 mm
12:33 PM 19.6°F-6.9°C 12.4°F-10.9°C 73% 3.4 mph SSW5.5 kmh SSW 5.8 mph9.3 kmh 29.92 in1013.2 mb 0.00 in0.0 mm 0.00 in0.0 mm 0.02 in0.5 mm
12:38 PM 19.8°F-6.8°C 12.7°F-10.7°C 74% 4.0 mph S6.4 kmh S 6.0 mph9.7 kmh 29.92 in1013.2 mb 0.00 in0.0 mm 0.00 in0.0 mm 0.02 in0.5 mm
12:43 PM 19.9°F-6.7°C 14.2°F-9.9°C 78% 3.1 mph SSW5.0 kmh SSW 4.7 mph7.6 kmh 29.92 in1013.2 mb 0.00 in0.0 mm 0.00 in0.0 mm 0.02 in0.5 mm
12:48 PM 20.1°F-6.6°C 14.4°F-9.8°C 78% 2.9 mph S4.7 kmh S 7.2 mph11.6 kmh 29.91 in1012.9 mb 0.00 in0.0 mm 0.00 in0.0 mm 0.02 in0.5 mm
12:53 PM 19.9°F-6.7°C 14.2°F-9.9°C 78% 4.9 mph S7.9 kmh S 9.2 mph14.8 kmh 29.91 in1012.9 mb 0.00 in0.0 mm 0.00 in0.0 mm 0.02 in0.5 mm
12:58 PM 19.9°F-6.7°C 14.2°F-9.9°C 78% 2.7 mph S4.3 kmh S 4.0 mph6.4 kmh 29.91 in1012.9 mb 0.00 in0.0 mm 0.00 in0.0 mm 0.02 in0.5 mm
01:03 PM 20.1°F-6.6°C 14.4°F-9.8°C 78% 2.9 mph S4.7 kmh S 7.6 mph12.2 kmh 29.91 in1012.9 mb 0.00 in0.0 mm 0.00 in0.0 mm 0.02 in0.5 mm
01:08 PM 20.3°F-6.5°C 14.0°F-10.0°C 76% 3.6 mph S5.8 kmh S 6.0 mph9.7 kmh 29.90 in1012.5 mb 0.00 in0.0 mm 0.00 in0.0 mm 0.02 in0.5 mm
01:13 PM 20.1°F-6.6°C 13.5°F-10.3°C 75% 2.7 mph NE4.3 kmh NE 5.8 mph9.3 kmh 29.90 in1012.5 mb 0.00 in0.0 mm 0.00 in0.0 mm 0.02 in0.5 mm
01:18 PM 19.9°F-6.7°C 12.7°F-10.7°C 73% 3.4 mph SW5.5 kmh SW 7.2 mph11.6 kmh 29.90 in1012.5 mb 0.00 in0.0 mm 0.00 in0.0 mm 0.02 in0.5 mm
01:23 PM 19.8°F-6.8°C 12.6°F-10.8°C 73% 8.1 mph S13.0 kmh S 11.2 mph18.0 kmh 29.90 in1012.5 mb 0.00 in0.0 mm 0.00 in0.0 mm 0.02 in0.5 mm
01:28 PM 19.4°F-7.0°C 11.5°F-11.4°C 71% 6.9 mph SSW11.1 kmh SSW 11.6 mph18.7 kmh 29.90 in1012.5 mb 0.00 in0.0 mm 0.00 in0.0 mm 0.02 in0.5 mm
01:33 PM 19.2°F-7.1°C 11.1°F-11.6°C 70% 4.3 mph S6.9 kmh S 5.4 mph8.7 kmh 29.91 in1012.9 mb 0.00 in0.0 mm 0.00 in0.0 mm 0.02 in0.5 mm
01:38 PM 19.6°F-6.9°C 12.4°F-10.9°C 73% 4.3 mph S6.9 kmh S 6.7 mph10.8 kmh 29.90 in1012.5 mb 0.00 in0.0 mm 0.00 in0.0 mm 0.02 in0.5 mm
01:43 PM 19.6°F-6.9°C 12.6°F-10.8°C 74% 3.8 mph S6.1 kmh S 6.5 mph10.5 kmh 29.90 in1012.5 mb 0.00 in0.0 mm 0.00 in0.0 mm 0.02 in0.5 mm
01:48 PM 19.6°F-6.9°C 12.6°F-10.8°C 74% 3.6 mph S5.8 kmh S 6.9 mph11.1 kmh 29.90 in1012.5 mb 0.00 in0.0 mm 0.00 in0.0 mm 0.02 in0.5 mm
01:53 PM 19.6°F-6.9°C 12.6°F-10.8°C 74% 5.6 mph SSW9.0 kmh SSW 9.4 mph15.1 kmh 29.90 in1012.5 mb 0.00 in0.0 mm 0.00 in0.0 mm 0.02 in0.5 mm
01:58 PM 19.4°F-7.0°C 11.3°F-11.5°C 70% 5.4 mph SSW8.7 kmh SSW 9.8 mph15.8 kmh 29.90 in1012.5 mb 0.00 in0.0 mm 0.00 in0.0 mm 0.02 in0.5 mm
02:03 PM 19.2°F-7.1°C 12.9°F-10.6°C 76% 6.7 mph S10.8 kmh S 8.5 mph13.7 kmh 29.90 in1012.5 mb 0.00 in0.0 mm 0.00 in0.0 mm 0.02 in0.5 mm
02:08 PM 19.0°F-7.2°C 11.8°F-11.2°C 73% 7.6 mph SW12.2 kmh SW 12.5 mph20.1 kmh 29.90 in1012.5 mb 0.00 in0.0 mm 0.00 in0.0 mm 0.02 in0.5 mm
02:13 PM 18.5°F-7.5°C 10.0°F-12.2°C 69% 3.8 mph S6.1 kmh S 7.4 mph11.9 kmh 29.90 in1012.5 mb 0.00 in0.0 mm 0.00 in0.0 mm 0.02 in0.5 mm
02:18 PM 18.7°F-7.4°C 10.2°F-12.1°C 69% 8.7 mph SSW14.0 kmh SSW 13.4 mph21.6 kmh 29.90 in1012.5 mb 0.00 in0.0 mm 0.00 in0.0 mm 0.02 in0.5 mm
02:23 PM 18.5°F-7.5°C 9.7°F-12.4°C 68% 4.0 mph SW6.4 kmh SW 11.2 mph18.0 kmh 29.90 in1012.5 mb 0.00 in0.0 mm 0.00 in0.0 mm 0.02 in0.5 mm
02:28 PM 18.7°F-7.4°C 9.9°F-12.3°C 68% 7.2 mph SSW11.6 kmh SSW 12.8 mph20.6 kmh 29.90 in1012.5 mb 0.00 in0.0 mm 0.00 in0.0 mm 0.02 in0.5 mm
02:33 PM 18.7°F-7.4°C 9.9°F-12.3°C 68% 3.6 mph S5.8 kmh S 5.6 mph9.0 kmh 29.90 in1012.5 mb 0.00 in0.0 mm 0.00 in0.0 mm 0.02 in0.5 mm
02:38 PM 18.5°F-7.5°C 9.3°F-12.6°C 67% 6.5 mph SW10.5 kmh SW 9.2 mph14.8 kmh 29.90 in1012.5 mb 0.00 in0.0 mm 0.00 in0.0 mm 0.02 in0.5 mm
02:43 PM 18.5°F-7.5°C 9.7°F-12.4°C 68% 4.5 mph SSW7.2 kmh SSW 8.5 mph13.7 kmh 29.89 in1012.2 mb 0.00 in0.0 mm 0.00 in0.0 mm 0.02 in0.5 mm
02:48 PM 18.5°F-7.5°C 9.7°F-12.4°C 68% 4.3 mph S6.9 kmh S 6.9 mph11.1 kmh 29.89 in1012.2 mb 0.00 in0.0 mm 0.00 in0.0 mm 0.02 in0.5 mm
02:53 PM 18.5°F-7.5°C 9.7°F-12.4°C 68% 8.1 mph SW13.0 kmh SW 13.4 mph21.6 kmh 29.89 in1012.2 mb 0.00 in0.0 mm 0.00 in0.0 mm 0.02 in0.5 mm
02:58 PM 18.3°F-7.6°C 9.5°F-12.5°C 68% 4.9 mph SSW7.9 kmh SSW 8.9 mph14.3 kmh 29.89 in1012.2 mb 0.00 in0.0 mm 0.00 in0.0 mm 0.02 in0.5 mm
03:03 PM 18.5°F-7.5°C 10.0°F-12.2°C 69% 4.3 mph S6.9 kmh S 8.9 mph14.3 kmh 29.89 in1012.2 mb 0.00 in0.0 mm 0.00 in0.0 mm 0.02 in0.5 mm
03:08 PM 18.5°F-7.5°C 10.0°F-12.2°C 69% 3.8 mph S6.1 kmh S 8.1 mph13.0 kmh 29.89 in1012.2 mb 0.00 in0.0 mm 0.00 in0.0 mm 0.02 in0.5 mm
03:13 PM 18.7°F-7.4°C 10.6°F-11.9°C 70% 2.7 mph S4.3 kmh S 4.3 mph6.9 kmh 29.89 in1012.2 mb 0.00 in0.0 mm 0.00 in0.0 mm 0.02 in0.5 mm
03:18 PM 18.7°F-7.4°C 10.6°F-11.9°C 70% 4.3 mph SSW6.9 kmh SSW 8.3 mph13.4 kmh 29.88 in1011.9 mb 0.00 in0.0 mm 0.00 in0.0 mm 0.02 in0.5 mm
03:23 PM 18.5°F-7.5°C 10.6°F-11.9°C 71% 3.6 mph SSW5.8 kmh SSW 6.7 mph10.8 kmh 29.88 in1011.9 mb 0.00 in0.0 mm 0.00 in0.0 mm 0.02 in0.5 mm
03:28 PM 18.9°F-7.3°C 10.9°F-11.7°C 71% 6.7 mph SSW10.8 kmh SSW 11.4 mph18.3 kmh 29.88 in1011.9 mb 0.00 in0.0 mm 0.00 in0.0 mm 0.02 in0.5 mm
03:33 PM 18.5°F-7.5°C 11.3°F-11.5°C 73% 4.7 mph SW7.6 kmh SW 8.1 mph13.0 kmh 29.88 in1011.9 mb 0.00 in0.0 mm 0.00 in0.0 mm 0.02 in0.5 mm
03:38 PM 18.5°F-7.5°C 11.7°F-11.3°C 74% 2.2 mph SW3.5 kmh SW 3.6 mph5.8 kmh 29.88 in1011.9 mb 0.00 in0.0 mm 0.00 in0.0 mm 0.02 in0.5 mm
03:43 PM 18.5°F-7.5°C 11.7°F-11.3°C 74% 4.3 mph S6.9 kmh S 10.5 mph16.9 kmh 29.88 in1011.9 mb 0.00 in0.0 mm 0.00 in0.0 mm 0.02 in0.5 mm
03:48 PM 18.5°F-7.5°C 11.8°F-11.2°C 75% 4.3 mph SSW6.9 kmh SSW 7.4 mph11.9 kmh 29.88 in1011.9 mb 0.00 in0.0 mm 0.00 in0.0 mm 0.02 in0.5 mm
03:53 PM 19.0°F-7.2°C 12.2°F-11.0°C 74% 5.1 mph SSW8.2 kmh SSW 7.4 mph11.9 kmh 29.87 in1011.5 mb 0.00 in0.0 mm 0.00 in0.0 mm 0.02 in0.5 mm
03:58 PM 19.0°F-7.2°C 12.2°F-11.0°C 74% 4.0 mph S6.4 kmh S 5.8 mph9.3 kmh 29.87 in1011.5 mb 0.00 in0.0 mm 0.00 in0.0 mm 0.02 in0.5 mm
04:03 PM 18.9°F-7.3°C 12.0°F-11.1°C 74% 4.0 mph SSE6.4 kmh SSE 7.6 mph12.2 kmh 29.87 in1011.5 mb 0.00 in0.0 mm 0.00 in0.0 mm 0.02 in0.5 mm
04:08 PM 18.7°F-7.4°C 11.5°F-11.4°C 73% 6.3 mph SSW10.1 kmh SSW 10.7 mph17.2 kmh 29.87 in1011.5 mb 0.00 in0.0 mm 0.00 in0.0 mm 0.02 in0.5 mm
04:13 PM 18.7°F-7.4°C 11.8°F-11.2°C 74% 4.9 mph SSW7.9 kmh SSW 8.3 mph13.4 kmh 29.87 in1011.5 mb 0.00 in0.0 mm 0.00 in0.0 mm 0.02 in0.5 mm
04:18 PM 18.9°F-7.3°C 12.2°F-11.0°C 75% 2.2 mph SSE3.5 kmh SSE 4.7 mph7.6 kmh 29.87 in1011.5 mb 0.00 in0.0 mm 0.00 in0.0 mm 0.02 in0.5 mm
04:23 PM 19.0°F-7.2°C 12.4°F-10.9°C 75% 4.0 mph S6.4 kmh S 6.0 mph9.7 kmh 29.87 in1011.5 mb 0.00 in0.0 mm 0.00 in0.0 mm 0.02 in0.5 mm
04:28 PM 18.7°F-7.4°C 12.0°F-11.1°C 75% 4.3 mph S6.9 kmh S 6.7 mph10.8 kmh 29.87 in1011.5 mb 0.00 in0.0 mm 0.00 in0.0 mm 0.02 in0.5 mm
04:33 PM 18.7°F-7.4°C 12.4°F-10.9°C 76% 4.3 mph SW6.9 kmh SW 6.7 mph10.8 kmh 29.87 in1011.5 mb 0.00 in0.0 mm 0.00 in0.0 mm 0.02 in0.5 mm
04:38 PM 18.7°F-7.4°C 12.4°F-10.9°C 76% 6.5 mph SSW10.5 kmh SSW 8.5 mph13.7 kmh 29.88 in1011.9 mb 0.00 in0.0 mm 0.00 in0.0 mm 0.02 in0.5 mm
04:43 PM 18.1°F-7.7°C 12.9°F-10.6°C 80% 4.7 mph SSW7.6 kmh SSW 8.1 mph13.0 kmh 29.88 in1011.9 mb 0.00 in0.0 mm 0.00 in0.0 mm 0.02 in0.5 mm
04:48 PM 17.8°F-7.9°C 12.9°F-10.6°C 81% 6.0 mph SSW9.7 kmh SSW 12.1 mph19.5 kmh 29.88 in1011.9 mb 0.00 in0.0 mm 0.00 in0.0 mm 0.02 in0.5 mm
04:58 PM 17.8°F-7.9°C 12.0°F-11.1°C 78% 2.9 mph WSW4.7 kmh WSW 6.7 mph10.8 kmh 29.88 in1011.9 mb 0.00 in0.0 mm 0.00 in0.0 mm 0.02 in0.5 mm
05:03 PM 17.6°F-8.0°C 9.9°F-12.3°C 71% 3.8 mph S6.1 kmh S 9.2 mph14.8 kmh 29.89 in1012.2 mb 0.00 in0.0 mm 0.00 in0.0 mm 0.02 in0.5 mm
05:08 PM 17.8°F-7.9°C 9.7°F-12.4°C 70% 2.9 mph SSW4.7 kmh SSW 5.4 mph8.7 kmh 29.89 in1012.2 mb 0.00 in0.0 mm 0.00 in0.0 mm 0.02 in0.5 mm
05:13 PM 17.6°F-8.0°C 9.1°F-12.7°C 69% 4.0 mph S6.4 kmh S 7.6 mph12.2 kmh 29.89 in1012.2 mb 0.00 in0.0 mm 0.00 in0.0 mm 0.02 in0.5 mm
05:18 PM 17.2°F-8.2°C 8.2°F-13.2°C 67% 3.1 mph S5.0 kmh S 5.6 mph9.0 kmh 29.89 in1012.2 mb 0.00 in0.0 mm 0.00 in0.0 mm 0.02 in0.5 mm
05:23 PM 17.4°F-8.1°C 8.4°F-13.1°C 67% 3.4 mph S5.5 kmh S 5.6 mph9.0 kmh 29.90 in1012.5 mb 0.00 in0.0 mm 0.00 in0.0 mm 0.02 in0.5 mm
05:28 PM 17.2°F-8.2°C 8.2°F-13.2°C 67% 3.1 mph WSW5.0 kmh WSW 7.8 mph12.6 kmh 29.90 in1012.5 mb 0.00 in0.0 mm 0.00 in0.0 mm 0.02 in0.5 mm
05:33 PM 16.9°F-8.4°C 7.9°F-13.4°C 67% 5.1 mph SSW8.2 kmh SSW 9.6 mph15.4 kmh 29.91 in1012.9 mb 0.00 in0.0 mm 0.00 in0.0 mm 0.02 in0.5 mm
05:38 PM 16.7°F-8.5°C 7.9°F-13.4°C 68% 2.5 mph S4.0 kmh S 7.8 mph12.6 kmh 29.90 in1012.5 mb 0.00 in0.0 mm 0.00 in0.0 mm 0.02 in0.5 mm
05:43 PM 16.7°F-8.5°C 7.9°F-13.4°C 68% 1.6 mph NNW2.6 kmh NNW 4.0 mph6.4 kmh 29.91 in1012.9 mb 0.00 in0.0 mm 0.00 in0.0 mm 0.02 in0.5 mm
05:48 PM 16.5°F-8.6°C 9.3°F-12.6°C 73% 2.9 mph SSW4.7 kmh SSW 6.7 mph10.8 kmh 29.91 in1012.9 mb 0.00 in0.0 mm 0.00 in0.0 mm 0.02 in0.5 mm
05:53 PM 16.0°F-8.9°C 8.8°F-12.9°C 73% 4.7 mph SW7.6 kmh SW 9.8 mph15.8 kmh 29.91 in1012.9 mb 0.00 in0.0 mm 0.00 in0.0 mm 0.02 in0.5 mm
05:58 PM 15.6°F-9.1°C 7.5°F-13.6°C 70% 3.1 mph SW5.0 kmh SW 4.7 mph7.6 kmh 29.92 in1013.2 mb 0.00 in0.0 mm 0.00 in0.0 mm 0.02 in0.5 mm
06:03 PM 15.3°F-9.3°C 6.6°F-14.1°C 68% 2.5 mph ENE4.0 kmh ENE 5.1 mph8.2 kmh 29.92 in1013.2 mb 0.00 in0.0 mm 0.00 in0.0 mm 0.02 in0.5 mm
06:08 PM 15.1°F-9.4°C 6.1°F-14.4°C 67% 3.1 mph SW5.0 kmh SW 6.9 mph11.1 kmh 29.92 in1013.2 mb 0.00 in0.0 mm 0.00 in0.0 mm 0.02 in0.5 mm
06:13 PM 14.9°F-9.5°C 5.9°F-14.5°C 67% 4.7 mph SSW7.6 kmh SSW 6.7 mph10.8 kmh 29.92 in1013.2 mb 0.00 in0.0 mm 0.00 in0.0 mm 0.02 in0.5 mm
06:18 PM 14.7°F-9.6°C 5.7°F-14.6°C 67% 3.4 mph SSW5.5 kmh SSW 4.9 mph7.9 kmh 29.93 in1013.5 mb 0.00 in0.0 mm 0.00 in0.0 mm 0.02 in0.5 mm
06:23 PM 15.1°F-9.4°C 6.1°F-14.4°C 67% 3.1 mph SSW5.0 kmh SSW 4.7 mph7.6 kmh 29.93 in1013.5 mb 0.00 in0.0 mm 0.00 in0.0 mm 0.02 in0.5 mm
06:28 PM 15.1°F-9.4°C 5.4°F-14.8°C 65% 4.0 mph SW6.4 kmh SW 7.4 mph11.9 kmh 29.93 in1013.5 mb 0.00 in0.0 mm 0.00 in0.0 mm 0.02 in0.5 mm
06:33 PM 14.7°F-9.6°C 4.8°F-15.1°C 64% 2.7 mph NW4.3 kmh NW 4.7 mph7.6 kmh 29.94 in1013.9 mb 0.00 in0.0 mm 0.00 in0.0 mm 0.02 in0.5 mm
06:38 PM 14.5°F-9.7°C 4.6°F-15.2°C 64% 2.0 mph S3.2 kmh S 4.7 mph7.6 kmh 29.94 in1013.9 mb 0.00 in0.0 mm 0.00 in0.0 mm 0.02 in0.5 mm
06:43 PM 14.4°F-9.8°C 4.5°F-15.3°C 64% 2.5 mph S4.0 kmh S 3.1 mph5.0 kmh 29.95 in1014.2 mb 0.00 in0.0 mm 0.00 in0.0 mm 0.02 in0.5 mm
06:48 PM 14.0°F-10.0°C 4.1°F-15.5°C 64% 4.9 mph SSW7.9 kmh SSW 9.2 mph14.8 kmh 29.95 in1014.2 mb 0.00 in0.0 mm 0.00 in0.0 mm 0.02 in0.5 mm
06:53 PM 13.8°F-10.1°C 3.9°F-15.6°C 64% 4.5 mph S7.2 kmh S 11.4 mph18.3 kmh 29.96 in1014.6 mb 0.00 in0.0 mm 0.00 in0.0 mm 0.02 in0.5 mm
06:58 PM 13.6°F-10.2°C 3.4°F-15.9°C 63% 2.9 mph S4.7 kmh S 6.0 mph9.7 kmh 29.96 in1014.6 mb 0.00 in0.0 mm 0.00 in0.0 mm 0.02 in0.5 mm
07:03 PM 13.5°F-10.3°C 3.9°F-15.6°C 65% 1.8 mph NNE2.9 kmh NNE 3.6 mph5.8 kmh 29.96 in1014.6 mb 0.00 in0.0 mm 0.00 in0.0 mm 0.02 in0.5 mm
07:08 PM 13.5°F-10.3°C 4.5°F-15.3°C 67% 3.6 mph SSW5.8 kmh SSW 6.3 mph10.1 kmh 29.97 in1014.9 mb 0.00 in0.0 mm 0.00 in0.0 mm 0.02 in0.5 mm
07:13 PM 13.5°F-10.3°C 4.8°F-15.1°C 68% 2.5 mph S4.0 kmh S 3.4 mph5.5 kmh 29.97 in1014.9 mb 0.00 in0.0 mm 0.00 in0.0 mm 0.02 in0.5 mm
07:18 PM 13.3°F-10.4°C 4.3°F-15.4°C 67% 6.3 mph S10.1 kmh S 10.7 mph17.2 kmh 29.97 in1014.9 mb 0.00 in0.0 mm 0.00 in0.0 mm 0.02 in0.5 mm
07:23 PM 13.3°F-10.4°C 4.3°F-15.4°C 67% 2.5 mph SW4.0 kmh SW 5.4 mph8.7 kmh 29.98 in1015.2 mb 0.00 in0.0 mm 0.00 in0.0 mm 0.02 in0.5 mm
07:28 PM 13.3°F-10.4°C 3.7°F-15.7°C 65% 1.6 mph SW2.6 kmh SW 3.8 mph6.1 kmh 29.98 in1015.2 mb 0.00 in0.0 mm 0.00 in0.0 mm 0.02 in0.5 mm
07:33 PM 13.1°F-10.5°C 3.6°F-15.8°C 65% 2.0 mph NNE3.2 kmh NNE 7.8 mph12.6 kmh 29.98 in1015.2 mb 0.00 in0.0 mm 0.00 in0.0 mm 0.02 in0.5 mm
07:38 PM 13.1°F-10.5°C 3.2°F-16.0°C 64% 2.0 mph S3.2 kmh S 4.0 mph6.4 kmh 29.98 in1015.2 mb 0.00 in0.0 mm 0.00 in0.0 mm 0.02 in0.5 mm
07:43 PM 12.7°F-10.7°C 3.2°F-16.0°C 65% 2.9 mph SE4.7 kmh SE 5.8 mph9.3 kmh 29.97 in1014.9 mb 0.00 in0.0 mm 0.00 in0.0 mm 0.02 in0.5 mm
07:48 PM 12.9°F-10.6°C 3.4°F-15.9°C 65% 4.9 mph SW7.9 kmh SW 9.2 mph14.8 kmh 29.98 in1015.2 mb 0.00 in0.0 mm 0.00 in0.0 mm 0.02 in0.5 mm
07:53 PM 12.9°F-10.6°C 3.4°F-15.9°C 65% 6.3 mph SW10.1 kmh SW 11.6 mph18.7 kmh 29.98 in1015.2 mb 0.00 in0.0 mm 0.00 in0.0 mm 0.02 in0.5 mm
07:58 PM 12.7°F-10.7°C 3.2°F-16.0°C 65% 2.0 mph SW3.2 kmh SW 4.0 mph6.4 kmh 29.98 in1015.2 mb 0.00 in0.0 mm 0.00 in0.0 mm 0.02 in0.5 mm
08:03 PM 12.6°F-10.8°C 3.0°F-16.1°C 65% 5.1 mph SSW8.2 kmh SSW 9.4 mph15.1 kmh 29.98 in1015.2 mb 0.00 in0.0 mm 0.00 in0.0 mm 0.02 in0.5 mm
08:08 PM 12.6°F-10.8°C 3.0°F-16.1°C 65% 3.8 mph SSW6.1 kmh SSW 7.2 mph11.6 kmh 29.98 in1015.2 mb 0.00 in0.0 mm 0.00 in0.0 mm 0.02 in0.5 mm
08:13 PM 12.6°F-10.8°C 3.0°F-16.1°C 65% 5.1 mph SSW8.2 kmh SSW 8.9 mph14.3 kmh 29.98 in1015.2 mb 0.00 in0.0 mm 0.00 in0.0 mm 0.02 in0.5 mm
08:18 PM 12.7°F-10.7°C 3.2°F-16.0°C 65% 2.9 mph SW4.7 kmh SW 4.9 mph7.9 kmh 29.98 in1015.2 mb 0.00 in0.0 mm 0.00 in0.0 mm 0.02 in0.5 mm
08:23 PM 12.7°F-10.7°C 3.9°F-15.6°C 67% 2.9 mph S4.7 kmh S 4.9 mph7.9 kmh 29.98 in1015.2 mb 0.00 in0.0 mm 0.00 in0.0 mm 0.02 in0.5 mm
08:28 PM 12.9°F-10.6°C 4.1°F-15.5°C 67% 1.6 mph SSE2.6 kmh SSE 3.1 mph5.0 kmh 29.98 in1015.2 mb 0.00 in0.0 mm 0.00 in0.0 mm 0.02 in0.5 mm
08:33 PM 12.9°F-10.6°C 4.1°F-15.5°C 67% 3.6 mph SSW5.8 kmh SSW 6.5 mph10.5 kmh 29.98 in1015.2 mb 0.00 in0.0 mm 0.00 in0.0 mm 0.02 in0.5 mm
08:38 PM 12.7°F-10.7°C 3.9°F-15.6°C 67% 6.7 mph S10.8 kmh S 13.2 mph21.2 kmh 29.98 in1015.2 mb 0.00 in0.0 mm 0.00 in0.0 mm 0.02 in0.5 mm
08:43 PM 12.9°F-10.6°C 4.1°F-15.5°C 67% 4.0 mph SSW6.4 kmh SSW 7.4 mph11.9 kmh 29.98 in1015.2 mb 0.00 in0.0 mm 0.00 in0.0 mm 0.02 in0.5 mm
08:48 PM 13.3°F-10.4°C 4.6°F-15.2°C 68% 3.4 mph S5.5 kmh S 5.6 mph9.0 kmh 29.98 in1015.2 mb 0.00 in0.0 mm 0.00 in0.0 mm 0.02 in0.5 mm
08:53 PM 13.6°F-10.2°C 5.4°F-14.8°C 69% 1.8 mph S2.9 kmh S 4.0 mph6.4 kmh 29.98 in1015.2 mb 0.00 in0.0 mm 0.00 in0.0 mm 0.02 in0.5 mm
08:58 PM 13.6°F-10.2°C 5.4°F-14.8°C 69% 5.6 mph SW9.0 kmh SW 9.2 mph14.8 kmh 29.98 in1015.2 mb 0.00 in0.0 mm 0.00 in0.0 mm 0.02 in0.5 mm
09:03 PM 13.5°F-10.3°C 5.5°F-14.7°C 70% 3.1 mph SSW5.0 kmh SSW 4.9 mph7.9 kmh 29.98 in1015.2 mb 0.00 in0.0 mm 0.00 in0.0 mm 0.02 in0.5 mm
09:13 PM 13.3°F-10.4°C 6.8°F-14.0°C 75% 2.5 mph SW4.0 kmh SW 7.2 mph11.6 kmh 29.98 in1015.2 mb 0.00 in0.0 mm 0.00 in0.0 mm 0.02 in0.5 mm
09:18 PM 13.3°F-10.4°C 7.2°F-13.8°C 76% 2.9 mph SSW4.7 kmh SSW 5.6 mph9.0 kmh 29.98 in1015.2 mb 0.00 in0.0 mm 0.00 in0.0 mm 0.02 in0.5 mm
09:23 PM 12.9°F-10.6°C 7.9°F-13.4°C 80% 2.2 mph SSW3.5 kmh SSW 4.5 mph7.2 kmh 29.98 in1015.2 mb 0.00 in0.0 mm 0.00 in0.0 mm 0.02 in0.5 mm
09:28 PM 12.9°F-10.6°C 7.9°F-13.4°C 80% 4.9 mph SW7.9 kmh SW 9.4 mph15.1 kmh 29.98 in1015.2 mb 0.00 in0.0 mm 0.00 in0.0 mm 0.02 in0.5 mm
09:34 PM 12.9°F-10.6°C 7.7°F-13.5°C 79% 3.4 mph SSW5.5 kmh SSW 5.4 mph8.7 kmh 29.98 in1015.2 mb 0.00 in0.0 mm 0.00 in0.0 mm 0.02 in0.5 mm
09:38 PM 12.9°F-10.6°C 7.7°F-13.5°C 79% 3.1 mph SSW5.0 kmh SSW 5.1 mph8.2 kmh 29.98 in1015.2 mb 0.00 in0.0 mm 0.00 in0.0 mm 0.02 in0.5 mm
09:44 PM 12.9°F-10.6°C 7.9°F-13.4°C 80% 4.9 mph SW7.9 kmh SW 8.1 mph13.0 kmh 29.98 in1015.2 mb 0.00 in0.0 mm 0.00 in0.0 mm 0.02 in0.5 mm
09:48 PM 12.7°F-10.7°C 8.8°F-12.9°C 84% 2.2 mph SW3.5 kmh SW 4.3 mph6.9 kmh 29.99 in1015.6 mb 0.00 in0.0 mm 0.00 in0.0 mm 0.02 in0.5 mm
09:54 PM 12.7°F-10.7°C 9.3°F-12.6°C 86% 2.7 mph SSE4.3 kmh SSE 6.7 mph10.8 kmh 30.00 in1015.9 mb 0.00 in0.0 mm 0.00 in0.0 mm 0.02 in0.5 mm
09:58 PM 12.6°F-10.8°C 9.1°F-12.7°C 86% 3.1 mph SSW5.0 kmh SSW 5.8 mph9.3 kmh 30.01 in1016.3 mb 0.00 in0.0 mm 0.00 in0.0 mm 0.02 in0.5 mm
10:04 PM 12.0°F-11.1°C 8.6°F-13.0°C 86% 2.9 mph W4.7 kmh W 5.4 mph8.7 kmh 30.01 in1016.3 mb 0.00 in0.0 mm 0.00 in0.0 mm 0.02 in0.5 mm
10:09 PM 12.0°F-11.1°C 8.6°F-13.0°C 86% 2.0 mph S3.2 kmh S 5.6 mph9.0 kmh 30.01 in1016.3 mb 0.00 in0.0 mm 0.00 in0.0 mm 0.02 in0.5 mm
10:14 PM 11.7°F-11.3°C 8.2°F-13.2°C 86% 2.5 mph N4.0 kmh N 5.4 mph8.7 kmh 30.01 in1016.3 mb 0.00 in0.0 mm 0.00 in0.0 mm 0.02 in0.5 mm
10:18 PM 11.3°F-11.5°C 7.7°F-13.5°C 85% 4.5 mph SW7.2 kmh SW 7.4 mph11.9 kmh 30.01 in1016.3 mb 0.00 in0.0 mm 0.00 in0.0 mm 0.02 in0.5 mm
10:24 PM 11.1°F-11.6°C 7.0°F-13.9°C 83% 4.7 mph SW7.6 kmh SW 15.7 mph25.3 kmh 30.02 in1016.6 mb 0.00 in0.0 mm 0.00 in0.0 mm 0.02 in0.5 mm
10:29 PM 10.9°F-11.7°C 6.3°F-14.3°C 81% 1.8 mph S2.9 kmh S 4.5 mph7.2 kmh 30.02 in1016.6 mb 0.00 in0.0 mm 0.00 in0.0 mm 0.02 in0.5 mm
10:34 PM 10.6°F-11.9°C 5.7°F-14.6°C 80% 1.8 mph WSW2.9 kmh WSW 5.4 mph8.7 kmh 30.02 in1016.6 mb 0.00 in0.0 mm 0.00 in0.0 mm 0.02 in0.5 mm
10:39 PM 10.8°F-11.8°C 5.2°F-14.9°C 78% 1.3 mph NE2.1 kmh NE 1.8 mph2.9 kmh 30.02 in1016.6 mb 0.00 in0.0 mm 0.00 in0.0 mm 0.02 in0.5 mm
10:44 PM 10.6°F-11.9°C 3.9°F-15.6°C 74% 2.7 mph W4.3 kmh W 4.7 mph7.6 kmh 30.02 in1016.6 mb 0.00 in0.0 mm 0.00 in0.0 mm 0.02 in0.5 mm
10:49 PM 10.4°F-12.0°C 2.5°F-16.4°C 70% 1.8 mph WSW2.9 kmh WSW 4.7 mph7.6 kmh 30.02 in1016.6 mb 0.00 in0.0 mm 0.00 in0.0 mm 0.02 in0.5 mm
10:54 PM 10.2°F-12.1°C 0.9°F-17.3°C 65% 3.6 mph WNW5.8 kmh WNW 10.1 mph16.3 kmh 30.02 in1016.6 mb 0.00 in0.0 mm 0.00 in0.0 mm 0.02 in0.5 mm
10:59 PM 10.6°F-11.9°C 0.5°F-17.5°C 63% 2.7 mph SW4.3 kmh SW 5.1 mph8.2 kmh 30.01 in1016.3 mb 0.00 in0.0 mm 0.00 in0.0 mm 0.02 in0.5 mm
11:04 PM 10.2°F-12.1°C -0.9°F-18.3°C 60% 2.5 mph SSW4.0 kmh SSW 5.8 mph9.3 kmh 30.02 in1016.6 mb 0.00 in0.0 mm 0.00 in0.0 mm 0.02 in0.5 mm
11:09 PM 10.0°F-12.2°C -1.5°F-18.6°C 59% 4.0 mph SW6.4 kmh SW 11.4 mph18.3 kmh 30.01 in1016.3 mb 0.00 in0.0 mm 0.00 in0.0 mm 0.02 in0.5 mm
11:14 PM 9.7°F-12.4°C -1.8°F-18.8°C 59% 1.6 mph SW2.6 kmh SW 3.1 mph5.0 kmh 30.01 in1016.3 mb 0.00 in0.0 mm 0.00 in0.0 mm 0.02 in0.5 mm
11:19 PM 9.5°F-12.5°C -1.7°F-18.7°C 60% 1.8 mph SE2.9 kmh SE 2.7 mph4.3 kmh 30.01 in1016.3 mb 0.00 in0.0 mm 0.00 in0.0 mm 0.02 in0.5 mm
11:24 PM 9.5°F-12.5°C -1.7°F-18.7°C 60% 2.0 mph SW3.2 kmh SW 4.9 mph7.9 kmh 30.02 in1016.6 mb 0.00 in0.0 mm 0.00 in0.0 mm 0.02 in0.5 mm
11:29 PM 9.3°F-12.6°C -1.1°F-18.4°C 62% 4.0 mph S6.4 kmh S 8.5 mph13.7 kmh 30.01 in1016.3 mb 0.00 in0.0 mm 0.00 in0.0 mm 0.02 in0.5 mm
11:34 PM 9.3°F-12.6°C -1.1°F-18.4°C 62% 4.9 mph SW7.9 kmh SW 10.1 mph16.3 kmh 30.01 in1016.3 mb 0.00 in0.0 mm 0.00 in0.0 mm 0.02 in0.5 mm
11:39 PM 9.1°F-12.7°C -1.3°F-18.5°C 62% 2.2 mph S3.5 kmh S 3.8 mph6.1 kmh 30.01 in1016.3 mb 0.00 in0.0 mm 0.00 in0.0 mm 0.02 in0.5 mm
11:44 PM 9.1°F-12.7°C -2.0°F-18.9°C 60% 2.9 mph S4.7 kmh S 6.7 mph10.8 kmh 30.01 in1016.3 mb 0.00 in0.0 mm 0.00 in0.0 mm 0.02 in0.5 mm
11:49 PM 9.0°F-12.8°C -2.2°F-19.0°C 60% 1.6 mph N2.6 kmh N 3.8 mph6.1 kmh 30.01 in1016.3 mb 0.00 in0.0 mm 0.00 in0.0 mm 0.02 in0.5 mm
11:54 PM 9.0°F-12.8°C -2.2°F-19.0°C 60% 2.9 mph SSW4.7 kmh SSW 4.9 mph7.9 kmh 30.01 in1016.3 mb 0.00 in0.0 mm 0.00 in0.0 mm 0.02 in0.5 mm
11:59 PM 9.0°F-12.8°C -1.5°F-18.6°C 62% 4.9 mph SW7.9 kmh SW 10.5 mph16.9 kmh 30.01 in1016.3 mb 0.00 in0.0 mm 0.00 in0.0 mm 0.02 in0.5 mm